Skip Navigation Links
NOAA logo - Click to go to the NOAA homepage
NOAA's National Weather Service
Alaska Aviation Weather Unit
  NWS logo - Click to go to the NWS homepage
Left Navbar Graphic     23 AKDT = 07 GMT

   
NOAA is celebrating 200 years of science, service, and stewardship. Visit the NOAA 200th celebration Web site to learn more.
USA.gov is the U.S. Government's official Web portal to all Federal, state and local government Web resources and services.
Facebook
NWS on Facebook

Important Change Regarding the AAWU Web Presence

 

Over the last several months, the AAWU has been working to navigate its webpages to a nationally supported server. Security, as well as other needs, have necessitated the change.  In the process, we have made an effort to enhance the functionality of our website, as well as some of our products. As of June 20, 2017, aawu.arh.noaa.gov will be discontinued. The new AAWU web address is weather.gov/aawu. It is now live and will run in-parallel with the old site until it is discontinued. Please send any feedback or questions regarding the new webpages to nws.ar.aawu.webauthors@noaa.gov.  Thank you for your patience during this time of transition.
AAWU Home :: Display TAF Add Bookmark
TAF CYXJ 240638Z 2407/2419 25010KT P6SM -SHRA SCT020 OVC050 TEMPO
     2407/2415 5SM SHRA BR BKN020 OVC040
     BECMG 2407/2409 34015G25KT
    FM241500 34015G25KT P6SM -SHRA FEW020 OVC040
    RMK NXT FCST BY 241300Z=

METAR CYXJ 240100Z 29009KT 15SM FEW060CB BKN120 18/04 A2946 RMK CB2AC5 SLP986 DENSITY ALT 3600FT= METAR CYXJ 240200Z 25012KT 15SM FEW060CB OVC100 16/05 A2946 RMK CB2AC6 SLP984 DENSITY ALT 3400FT= METAR CYXJ 240300Z 23019KT 15SM -RA FEW060 OVC080 13/05 A2949 RMK CU2AC6 SLP996 DENSITY ALT 3000FT= SPECI CYXJ 240353Z 22012KT 15SM BKN060 OVC130 10/08 A2949 RMK SC5AC3 SLP997 DENSITY ALT 2700FT= METAR CYXJ 240400Z 22013G18KT 15SM BKN060 OVC130 10/08 A2949 RMK SC5AC3 SLP996 DENSITY ALT 2700FT= METAR CYXJ 240500Z 25008KT 15SM BKN056 OVC110 10/07 A2949 RMK SC6AC2 SLP998 DENSITY ALT 2600FT= METAR CYXJ 240600Z 25009KT 15SM OVC052 10/07 A2950 RMK SC8 SLP998 DENSITY ALT 2600FT= SPECI CYXJ 240625Z 26006KT 15SM -RA OVC052 10/07 A2949 RMK SC8 SLP997 DENSITY ALT 2600FT= METAR CYXJ 240700Z 33006KT 15SM -RA OVC042 10/08 A2950 RMK SC8 SLP999 DENSITY ALT 2600FT=
 Alaska TAF Map

NOAA's National Weather Service
Alaska Aviation Weather Unit
6930 Sand Lake Road
Anchorage, AK 99502-1845
Disclaimer
Credits
Glossary
Privacy Policy
About Us
Career Opportunities
Contact AAWU Internet Services Site last modified: April, 17th 2012